Time;durP1;ratioP1;P1;durP2;ratioP2;P2;SDS_P1;SDS_P2;PMS_P1;PMS_P2;Temp;Humidity;BMP_temperature;BMP_pressure;BME280_temperature;BME280_humidity;BME280_pressure;Samples;Min_cycle;Max_cycle;Signal;HPM_P1;HPM_P2
2023/10/03 00:01:36;;;;;;;12.13;5.72;;;;;;;24.41;57.51;100752.97;5063458;28;20757;-62
2023/10/03 00:04:07;;;;;;;12.38;4.95;;;;;;;24.41;57.64;100747.34;5072950;28;20052;-62
2023/10/03 00:06:36;;;;;;;14.80;6.03;;;;;;;24.28;58.38;100755.44;5073356;28;20052;-63
2023/10/03 00:09:05;;;;;;;14.23;6.18;;;;;;;24.26;58.60;100763.50;5062201;28;20060;-62
2023/10/03 00:11:35;;;;;;;9.88;5.60;;;;;;;24.23;58.77;100772.72;5062779;28;20660;-61
2023/10/03 00:14:07;;;;;;;13.45;5.70;;;;;;;24.09;58.53;100752.25;5051869;28;20057;-62
2023/10/03 00:16:35;;;;;;;12.40;5.78;;;;;;;24.19;59.42;100749.44;5045066;28;20049;-62
2023/10/03 00:19:02;;;;;;;12.07;5.25;;;;;;;24.07;59.58;100751.84;5055495;28;20051;-62
2023/10/03 00:21:30;;;;;;;12.68;5.65;;;;;;;24.29;59.47;100764.69;5073265;28;20673;-62
2023/10/03 00:23:58;;;;;;;10.95;5.72;;;;;;;24.13;59.88;100767.91;5073375;28;20057;-62
2023/10/03 00:26:28;;;;;;;11.90;5.65;;;;;;;24.32;59.29;100759.03;5073069;28;20037;-61
2023/10/03 00:28:56;;;;;;;13.52;5.93;;;;;;;24.20;59.45;100767.13;5055843;28;20055;-64
2023/10/03 00:31:25;;;;;;;14.30;5.47;;;;;;;24.03;59.79;100760.28;5055282;28;20056;-61
2023/10/03 00:33:52;;;;;;;10.68;5.63;;;;;;;24.16;60.20;100761.50;5055411;28;20052;-62
2023/10/03 00:36:24;;;;;;;10.90;5.32;;;;;;;23.97;60.15;100770.31;5072824;28;20036;-62
2023/10/03 00:38:53;;;;;;;12.18;5.35;;;;;;;24.06;60.52;100770.75;5055309;28;20045;-61
2023/10/03 00:41:20;;;;;;;12.95;5.28;;;;;;;23.94;60.64;100776.75;5054860;28;20372;-61
2023/10/03 00:44:00;;;;;;;11.38;5.68;;;;;;;24.02;60.66;100780.41;5055069;28;20044;-62
2023/10/03 00:46:30;;;;;;;11.88;5.50;;;;;;;24.22;60.51;100785.19;5054795;28;20054;-62
2023/10/03 00:48:58;;;;;;;9.88;5.45;;;;;;;23.86;61.12;100788.41;5051703;28;20056;-63
2023/10/03 00:51:27;;;;;;;14.93;5.30;;;;;;;23.72;61.50;100785.56;5054874;28;20060;-62
2023/10/03 00:53:57;;;;;;;12.85;5.03;;;;;;;23.48;62.74;100800.41;5060955;28;20066;-62
2023/10/03 00:56:24;;;;;;;11.15;5.60;;;;;;;23.20;64.04;100793.50;5056902;28;20040;-63
2023/10/03 00:58:52;;;;;;;11.63;5.85;;;;;;;23.47;63.72;100791.16;5039436;28;20049;-61
2023/10/03 01:01:20;;;;;;;11.02;5.47;;;;;;;23.61;63.34;100799.63;5068227;28;20484;-62
2023/10/03 01:03:47;;;;;;;10.55;5.05;;;;;;;23.19;64.79;100805.09;5039537;28;20041;-62
2023/10/03 01:06:16;;;;;;;10.63;5.05;;;;;;;23.06;65.01;100795.44;5060404;28;20059;-62
2023/10/03 01:08:46;;;;;;;12.40;5.90;;;;;;;23.05;66.29;100797.44;5057082;28;20059;-63
2023/10/03 01:11:15;;;;;;;10.20;5.93;;;;;;;22.87;66.34;100805.00;5058789;28;20424;-63
2023/10/03 01:13:49;;;;;;;10.80;5.35;;;;;;;22.85;67.11;100809.38;5075516;28;20057;-62
2023/10/03 01:16:33;;;;;;;14.55;5.90;;;;;;;22.94;66.52;100802.22;5058143;28;20132;-62
2023/10/03 01:19:19;;;;;;;11.65;6.35;;;;;;;22.88;66.88;100795.38;5071810;28;20039;-65
2023/10/03 01:21:47;;;;;;;12.32;5.70;;;;;;;22.80;68.07;100809.78;5078468;28;20049;-62
2023/10/03 01:24:20;;;;;;;14.07;6.22;;;;;;;22.72;68.54;100816.53;5056809;28;20048;-62
2023/10/03 01:26:48;;;;;;;13.32;6.30;;;;;;;22.81;69.02;100822.59;5080015;28;20049;-63
2023/10/03 01:29:16;;;;;;;9.60;5.65;;;;;;;22.77;69.88;100827.41;5055841;28;20053;-63
2023/10/03 01:31:43;;;;;;;13.85;6.43;;;;;;;22.66;70.82;100832.16;5043613;28;20424;-61
2023/10/03 01:34:12;;;;;;;11.75;6.30;;;;;;;22.43;72.51;100832.38;5056516;28;20049;-64
2023/10/03 01:36:40;;;;;;;13.98;7.05;;;;;;;22.60;72.22;100828.91;5044328;28;20053;-63
2023/10/03 01:39:08;;;;;;;13.75;7.53;;;;;;;22.24;74.91;100821.41;5041829;28;20411;-63
2023/10/03 01:41:35;;;;;;;11.70;7.05;;;;;;;22.50;74.29;100826.00;5076118;28;20061;-62
2023/10/03 01:44:03;;;;;;;17.05;7.13;;;;;;;22.41;75.12;100833.97;5057763;28;20052;-62
2023/10/03 01:46:30;;;;;;;11.60;6.82;;;;;;;22.43;74.92;100832.38;5040193;28;20131;-62
2023/10/03 01:48:58;;;;;;;12.98;7.07;;;;;;;22.48;75.62;100839.63;5074952;28;20048;-64
2023/10/03 01:51:26;;;;;;;15.05;7.25;;;;;;;22.28;76.84;100825.84;5098864;28;20053;-64
2023/10/03 01:53:57;;;;;;;14.38;6.90;;;;;;;22.44;76.31;100836.78;5024906;28;20052;-65
2023/10/03 01:56:25;;;;;;;16.50;6.75;;;;;;;22.46;76.78;100827.97;5080125;28;20253;-62
2023/10/03 01:58:54;;;;;;;14.63;7.00;;;;;;;22.46;76.45;100831.59;5057783;28;20056;-63
2023/10/03 02:01:23;;;;;;;13.80;7.43;;;;;;;22.55;75.97;100823.66;5057411;28;20047;-63
2023/10/03 02:03:51;;;;;;;13.43;7.40;;;;;;;22.34;77.92;100827.09;5074405;28;20044;-62
2023/10/03 02:06:20;;;;;;;14.73;7.63;;;;;;;22.20;79.19;100834.59;5057765;28;20056;-63
2023/10/03 02:08:47;;;;;;;13.80;8.18;;;;;;;22.22;79.09;100835.84;5056464;28;20419;-63
2023/10/03 02:11:16;;;;;;;13.43;7.63;;;;;;;22.28;78.90;100842.69;5057765;28;20158;-63
2023/10/03 02:13:45;;;;;;;14.20;8.07;;;;;;;22.50;77.90;100835.25;5071050;28;20060;-63
2023/10/03 02:16:17;;;;;;;15.13;8.20;;;;;;;22.30;79.34;100842.28;5058204;28;20044;-62
2023/10/03 02:18:45;;;;;;;15.70;7.68;;;;;;;22.18;80.04;100828.56;5057553;28;20407;-62
2023/10/03 02:21:16;;;;;;;14.02;8.18;;;;;;;22.14;80.21;100834.16;5056078;28;20052;-63
2023/10/03 02:23:45;;;;;;;16.77;9.20;;;;;;;22.07;81.26;100833.31;5074889;28;20061;-62
2023/10/03 02:26:13;;;;;;;12.13;7.35;;;;;;;22.24;80.41;100839.06;5040978;28;20051;-63
2023/10/03 02:28:40;;;;;;;13.63;8.07;;;;;;;22.16;80.59;100839.38;5037415;28;20075;-63
2023/10/03 02:31:09;;;;;;;13.10;7.65;;;;;;;22.02;81.54;100836.47;5054615;28;20053;-62
2023/10/03 02:33:43;;;;;;;12.93;7.60;;;;;;;21.91;82.00;100841.19;5055118;28;20049;-62
2023/10/03 02:36:11;;;;;;;14.93;7.72;;;;;;;22.00;81.53;100842.44;5074486;28;20044;-63
2023/10/03 02:38:39;;;;;;;16.35;8.23;;;;;;;22.10;80.87;100835.34;5073996;28;20052;-62
2023/10/03 02:41:07;;;;;;;12.48;7.35;;;;;;;21.92;81.84;100831.56;5075093;28;20045;-62
2023/10/03 02:43:42;;;;;;;16.77;8.23;;;;;;;22.05;81.47;100819.69;5052593;28;20060;-63
2023/10/03 02:46:15;;;;;;;16.02;7.43;;;;;;;22.30;79.52;100815.03;5036784;28;20051;-62
2023/10/03 02:48:48;;;;;;;12.60;7.57;;;;;;;22.00;80.46;100828.44;5047788;28;20878;-63
2023/10/03 02:51:16;;;;;;;12.60;7.43;;;;;;;22.03;80.91;100843.69;5037560;28;20053;-62
2023/10/03 02:53:44;;;;;;;16.17;7.40;;;;;;;21.87;81.76;100849.56;5037075;28;20052;-62
2023/10/03 02:56:14;;;;;;;15.13;7.10;;;;;;;22.18;80.16;100853.81;5034764;28;20041;-62
2023/10/03 02:58:42;;;;;;;13.85;7.43;;;;;;;22.24;79.74;100844.69;5053096;28;20404;-62
2023/10/03 03:01:09;;;;;;;13.27;6.97;;;;;;;22.06;80.48;100845.72;5036437;28;20063;-63
2023/10/03 03:03:38;;;;;;;14.88;6.57;;;;;;;22.44;78.80;100852.84;5054732;28;20049;-63
2023/10/03 03:06:14;;;;;;;12.95;6.93;;;;;;;22.30;78.46;100853.53;5036583;28;20060;-63
2023/10/03 03:08:44;;;;;;;11.15;7.00;;;;;;;22.06;79.41;100854.13;5036197;28;20603;-62
2023/10/03 03:11:16;;;;;;;12.27;6.90;;;;;;;22.25;79.36;100856.69;5054341;28;20053;-63
2023/10/03 03:13:43;;;;;;;13.95;6.18;;;;;;;22.16;79.51;100856.22;5052494;28;20496;-62
2023/10/03 03:16:14;;;;;;;9.38;6.35;;;;;;;21.91;79.89;100863.63;5073904;28;20047;-63
2023/10/03 03:18:42;;;;;;;12.40;6.75;;;;;;;21.81;80.49;100862.31;5067623;28;20523;-62
2023/10/03 03:21:15;;;;;;;9.77;6.00;;;;;;;21.87;80.18;100857.97;5047020;28;20056;-62
2023/10/03 03:24:28;;;;;;;13.52;6.80;;;;;;;21.97;80.21;100857.25;5072946;28;20056;-62
2023/10/03 03:26:39;;;;;;;9.35;5.78;;;;;;;21.88;80.61;100859.56;5041030;28;20059;-62
2023/10/03 03:32:04;;;;;;;10.23;5.63;;;;;;;22.01;78.79;100874.13;5027485;28;20060;-63
2023/10/03 03:34:31;;;;;;;11.43;6.13;;;;;;;22.50;77.35;100860.50;5018881;28;20053;-62
2023/10/03 03:37:20;;;;;;;11.18;6.22;;;;;;;22.65;76.28;100870.66;5054768;28;20052;-62
2023/10/03 03:39:57;;;;;;;10.23;6.10;;;;;;;22.73;75.81;100871.53;5056153;28;20048;-64
2023/10/03 03:42:26;;;;;;;11.80;5.55;;;;;;;22.67;75.73;100873.06;5072682;28;20166;-63
2023/10/03 03:44:53;;;;;;;10.48;5.40;;;;;;;22.90;74.54;100868.81;5055934;28;20057;-63
2023/10/03 03:47:21;;;;;;;10.55;5.50;;;;;;;23.10;73.55;100877.75;5073642;28;20032;-63
2023/10/03 03:49:49;;;;;;;10.35;5.30;;;;;;;22.98;73.83;100873.25;5038471;28;20091;-64
2023/10/03 03:52:16;;;;;;;11.05;5.30;;;;;;;23.27;72.86;100885.47;5073085;28;20067;-62
2023/10/03 03:54:44;;;;;;;9.63;5.35;;;;;;;23.19;72.84;100883.81;5073345;28;20059;-64
2023/10/03 03:57:11;;;;;;;9.43;5.45;;;;;;;22.83;73.87;100893.25;5073860;28;20053;-63
2023/10/03 03:59:39;;;;;;;9.32;5.10;;;;;;;23.01;73.47;100899.78;5054598;28;20052;-61
2023/10/03 04:02:09;;;;;;;10.10;5.03;;;;;;;23.04;73.12;100894.19;5037352;28;20052;-63
2023/10/03 04:04:36;;;;;;;18.02;5.47;;;;;;;22.98;72.44;100900.59;5072984;28;20056;-63
2023/10/03 04:07:03;;;;;;;12.23;4.97;;;;;;;22.87;73.25;100905.31;5055714;28;20051;-61
2023/10/03 04:09:31;;;;;;;13.25;5.20;;;;;;;23.05;73.30;100900.59;5054621;28;20056;-62
2023/10/03 04:11:59;;;;;;;9.82;5.03;;;;;;;22.69;74.02;100899.59;5071637;28;20063;-64
2023/10/03 04:14:27;;;;;;;10.55;5.18;;;;;;;22.78;74.14;100897.25;5072781;28;20048;-63
2023/10/03 04:16:55;;;;;;;10.05;4.97;;;;;;;22.46;74.85;100913.00;5056301;28;20051;-62
2023/10/03 04:19:23;;;;;;;10.90;5.35;;;;;;;22.51;75.93;100912.63;5053920;28;20059;-63
2023/10/03 04:21:50;;;;;;;9.25;4.88;;;;;;;22.42;75.91;100922.59;5055038;28;20051;-64
2023/10/03 04:24:18;;;;;;;8.85;5.18;;;;;;;22.40;76.15;100930.59;5043261;28;20053;-62
2023/10/03 04:26:47;;;;;;;8.38;5.07;;;;;;;22.61;75.43;100944.84;5063757;28;20048;-62
2023/10/03 04:29:14;;;;;;;8.68;4.85;;;;;;;22.67;74.85;100946.91;5065927;28;20045;-63
2023/10/03 04:31:44;;;;;;;8.82;5.20;;;;;;;22.85;74.06;100933.00;5038054;28;20056;-63
2023/10/03 04:34:15;;;;;;;10.27;5.20;;;;;;;23.01;73.19;100939.13;5039428;28;20056;-63
2023/10/03 04:36:45;;;;;;;7.70;4.80;;;;;;;22.84;74.19;100942.63;5058350;28;20089;-63
2023/10/03 04:39:12;;;;;;;10.93;5.20;;;;;;;22.70;74.47;100937.69;5076526;28;20048;-62
2023/10/03 04:41:44;;;;;;;10.35;4.72;;;;;;;22.83;74.20;100933.38;5042373;28;20040;-62
2023/10/03 04:44:16;;;;;;;8.63;4.53;;;;;;;22.72;74.36;100946.53;5075006;28;20044;-62
2023/10/03 04:46:48;;;;;;;10.07;5.15;;;;;;;22.51;75.11;100945.53;5057337;28;20072;-63
2023/10/03 04:49:16;;;;;;;10.98;5.32;;;;;;;22.74;75.14;100946.97;5051629;28;20053;-62
2023/10/03 04:51:47;;;;;;;12.23;5.32;;;;;;;22.53;75.37;100951.56;5072528;28;20036;-64
2023/10/03 04:54:16;;;;;;;8.18;5.13;;;;;;;22.56;75.53;100948.81;5059500;28;20527;-62
2023/10/03 04:56:44;;;;;;;11.20;5.00;;;;;;;22.35;76.49;100957.81;5053601;28;20037;-62
2023/10/03 04:59:13;;;;;;;11.05;5.10;;;;;;;22.43;76.07;100949.47;5078731;28;20063;-63
2023/10/03 05:01:40;;;;;;;8.57;5.03;;;;;;;22.76;74.93;100949.38;5079173;28;20053;-62
2023/10/03 05:04:07;;;;;;;10.75;4.97;;;;;;;22.60;75.04;100958.06;5071089;28;20056;-64
2023/10/03 05:06:35;;;;;;;9.60;4.97;;;;;;;22.49;75.49;100959.94;5058935;28;20059;-62
2023/10/03 05:09:04;;;;;;;9.90;5.45;;;;;;;22.66;74.99;100950.91;5076382;28;20403;-63
2023/10/03 05:11:32;;;;;;;9.95;4.70;;;;;;;22.50;75.41;100947.53;5058433;28;20053;-62
2023/10/03 05:14:00;;;;;;;8.65;4.95;;;;;;;22.31;75.81;100959.81;5076514;28;20056;-62
2023/10/03 05:16:29;;;;;;;8.85;5.07;;;;;;;22.60;75.64;100969.31;5076264;28;20055;-62
2023/10/03 05:18:56;;;;;;;9.30;4.75;;;;;;;22.51;75.52;100971.59;5075761;28;20052;-62
2023/10/03 05:21:25;;;;;;;10.80;4.65;;;;;;;22.61;74.91;100968.13;5076010;28;20127;-64
2023/10/03 05:23:53;;;;;;;10.35;4.40;;;;;;;22.37;75.81;100970.69;5076263;28;20052;-63
2023/10/03 05:26:21;;;;;;;9.57;4.80;;;;;;;22.42;76.47;100968.31;5076309;28;20044;-62
2023/10/03 05:28:49;;;;;;;7.75;4.13;;;;;;;22.66;75.04;100978.19;5076145;28;20045;-62
2023/10/03 05:31:17;;;;;;;9.13;4.28;;;;;;;22.62;75.31;100978.16;5075905;28;20055;-62
2023/10/03 05:33:44;;;;;;;12.23;4.60;;;;;;;22.46;75.81;100990.78;5076120;28;20059;-61
2023/10/03 05:36:18;;;;;;;9.30;4.28;;;;;;;22.38;76.30;100989.13;5067232;28;20049;-63
2023/10/03 05:38:46;;;;;;;6.80;4.25;;;;;;;22.60;75.91;101003.00;5071781;28;20047;-62
2023/10/03 05:41:21;;;;;;;9.50;4.63;;;;;;;22.83;74.42;100997.19;5069215;28;20045;-64
2023/10/03 05:43:49;;;;;;;8.98;4.45;;;;;;;22.65;74.85;100999.84;5065484;28;20411;-63
2023/10/03 05:46:16;;;;;;;10.25;4.32;;;;;;;22.54;75.80;101009.34;5074370;28;20057;-63
2023/10/03 05:48:47;;;;;;;8.13;4.03;;;;;;;22.54;75.81;101015.81;5066529;28;20048;-63
2023/10/03 05:51:24;;;;;;;12.10;4.65;;;;;;;22.67;75.27;101002.25;5032416;28;20053;-63
2023/10/03 05:53:51;;;;;;;8.85;4.63;;;;;;;22.74;74.90;100993.88;5064126;28;20420;-62
2023/10/03 05:56:19;;;;;;;10.60;4.50;;;;;;;22.77;74.95;101007.97;5075167;28;20048;-64
2023/10/03 05:58:46;;;;;;;11.10;6.97;;;;;;;22.93;74.13;101022.53;5057718;28;20051;-63
2023/10/03 06:01:14;;;;;;;8.18;4.40;;;;;;;22.85;74.49;101036.94;5075341;28;20579;-63
2023/10/03 06:03:43;;;;;;;7.68;4.32;;;;;;;22.94;74.44;101020.56;5063142;28;20052;-63
2023/10/03 06:06:10;;;;;;;8.48;4.50;;;;;;;22.85;74.41;101001.22;5075306;28;20527;-62
2023/10/03 06:08:38;;;;;;;7.43;4.22;;;;;;;22.76;75.51;100991.50;5064009;28;20048;-62
2023/10/03 06:11:05;;;;;;;8.98;4.25;;;;;;;22.70;76.03;100993.06;5075601;28;20049;-63
2023/10/03 06:13:44;;;;;;;12.70;4.63;;;;;;;22.72;75.81;101024.34;5056453;28;20049;-65
2023/10/03 06:16:58;;;;;;;9.65;4.82;;;;;;;22.80;75.79;101014.81;5037872;28;20060;-62
2023/10/03 06:19:25;;;;;;;8.45;4.60;;;;;;;22.86;75.54;101010.44;5067319;28;20059;-63
2023/10/03 06:21:52;;;;;;;8.85;5.30;;;;;;;22.82;75.64;101004.00;5057270;28;20052;-62
2023/10/03 06:24:20;;;;;;;12.52;9.18;;;;;;;22.81;75.71;101014.41;5073342;28;20044;-63
2023/10/03 06:26:47;;;;;;;9.20;6.20;;;;;;;22.88;75.50;101011.66;5075085;28;20047;-63
2023/10/03 06:29:15;;;;;;;9.43;6.40;;;;;;;22.70;76.03;101007.91;5073594;28;20401;-63
2023/10/03 06:31:45;;;;;;;10.45;5.57;;;;;;;22.64;76.74;101009.47;5039528;28;20060;-63
2023/10/03 06:34:13;;;;;;;;;;;;;;;22.60;76.82;100994.56;5074293;28;20052;-62
2023/10/03 06:36:40;;;;;;;8.60;4.85;;;;;;;22.75;76.42;101003.94;5074968;28;19924;-62
2023/10/03 06:39:08;;;;;;;11.10;5.07;;;;;;;22.65;76.73;101011.06;5055090;28;20754;-62
2023/10/03 06:41:38;;;;;;;8.35;4.15;;;;;;;22.63;76.75;100998.63;5075001;28;20569;-64
2023/10/03 06:44:14;;;;;;;9.52;4.75;;;;;;;22.66;77.25;101000.66;5058362;28;20056;-65
2023/10/03 06:46:53;;;;;;;13.15;7.13;;;;;;;22.71;76.96;100994.66;5058802;28;20052;-63
2023/10/03 06:49:23;;;;;;;11.45;8.32;;;;;;;22.62;78.00;100994.19;5038798;28;20044;-63
2023/10/03 06:51:51;;;;;;;9.37;5.57;;;;;;;22.65;77.80;101002.66;5074082;28;20349;-62
2023/10/03 06:54:29;;;;;;;11.27;4.65;;;;;;;22.58;78.37;101004.59;5073362;28;20290;-64
2023/10/03 06:57:10;;;;;;;10.30;4.90;;;;;;;22.56;78.63;101021.03;5054234;28;20044;-64
2023/10/03 06:59:54;;;;;;;15.70;4.75;;;;;;;22.46;79.73;101018.88;5073956;28;20051;-63
2023/10/03 07:02:22;;;;;;;14.05;4.85;;;;;;;22.59;79.15;101028.66;5056244;28;20234;-64
2023/10/03 07:04:59;;;;;;;16.05;5.22;;;;;;;22.57;79.29;101039.47;5063257;28;20688;-64
2023/10/03 07:08:04;;;;;;;9.95;5.15;;;;;;;22.47;79.84;101054.19;5026728;28;20053;-62
2023/10/03 07:10:32;;;;;;;12.52;5.00;;;;;;;22.25;80.76;101072.78;5073027;28;20056;-62
2023/10/03 07:13:01;;;;;;;7.68;4.80;;;;;;;22.07;81.95;101092.22;5073421;28;20061;-62
2023/10/03 07:15:29;;;;;;;10.05;4.88;;;;;;;22.39;85.35;101103.03;5069107;28;20063;-63
2023/10/03 07:17:58;;;;;;;9.77;5.10;;;;;;;22.33;83.62;101092.13;5063751;28;20056;-68
2023/10/03 07:20:27;;;;;;;14.40;6.32;;;;;;;22.34;86.14;101110.59;5071019;28;20041;-68
2023/10/03 07:22:56;;;;;;;15.23;5.85;;;;;;;22.62;92.94;101095.28;5094756;28;20372;-64
2023/10/03 07:25:24;;;;;;;15.23;6.53;;;;;;;22.54;93.98;101096.38;5024548;28;20064;-64
2023/10/03 07:27:51;;;;;;;14.80;8.68;;;;;;;22.49;88.16;101097.50;5074861;28;20037;-63
2023/10/03 07:30:20;;;;;;;15.20;8.02;;;;;;;22.50;88.28;101116.00;5055586;28;20443;-63
2023/10/03 07:33:01;;;;;;;13.23;5.20;;;;;;;22.52;89.78;101112.78;5072150;28;20048;-63
2023/10/03 07:35:44;;;;;;;9.75;4.45;;;;;;;22.35;86.10;101111.41;5035872;28;20061;-62
2023/10/03 07:38:12;;;;;;;7.90;5.30;;;;;;;22.35;85.07;101111.41;5054239;28;20041;-62
2023/10/03 07:40:41;;;;;;;11.68;4.90;;;;;;;22.43;85.60;101092.63;5072325;28;20044;-61
2023/10/03 07:43:09;;;;;;;9.65;4.82;;;;;;;22.10;86.82;101088.66;5060784;28;20060;-61
2023/10/03 07:45:40;;;;;;;9.90;4.97;;;;;;;22.20;87.14;101102.00;5043677;28;20056;-61
2023/10/03 07:48:10;;;;;;;9.93;4.90;;;;;;;22.28;85.74;101122.56;5071864;28;20044;-61
2023/10/03 07:50:37;;;;;;;7.75;4.50;;;;;;;22.29;86.17;101112.94;5067216;28;20412;-61
2023/10/03 07:53:05;;;;;;;9.23;5.00;;;;;;;22.21;86.73;101114.84;5057762;28;20154;-60
2023/10/03 07:55:35;;;;;;;8.75;5.10;;;;;;;22.31;86.40;101131.03;5076330;28;20055;-62
2023/10/03 07:58:03;;;;;;;8.55;5.15;;;;;;;21.95;87.38;101133.75;5072521;28;20048;-60
2023/10/03 08:00:31;;;;;;;7.63;4.90;;;;;;;22.09;87.49;101123.50;5064250;28;20060;-60
2023/10/03 08:02:58;;;;;;;9.27;5.13;;;;;;;22.15;86.68;101133.22;5048380;28;20048;-60
2023/10/03 08:05:29;;;;;;;9.55;4.70;;;;;;;22.10;87.00;101141.16;5060880;28;20060;-60
2023/10/03 08:07:57;;;;;;;7.95;4.80;;;;;;;22.24;86.38;101147.78;5063201;28;20052;-61
2023/10/03 08:10:36;;;;;;;8.82;4.90;;;;;;;22.29;86.07;101152.22;5071570;28;20044;-61
2023/10/03 08:13:09;;;;;;;9.80;4.82;;;;;;;22.19;85.79;101153.69;5066019;28;20057;-61
2023/10/03 08:15:36;;;;;;;8.27;4.40;;;;;;;22.44;84.92;101170.06;5065269;28;20507;-61
2023/10/03 08:18:04;;;;;;;9.55;4.90;;;;;;;22.36;84.72;101169.16;5056791;28;20063;-60
2023/10/03 08:20:35;;;;;;;9.57;4.53;;;;;;;22.17;86.28;101175.75;5072329;28;20049;-58
2023/10/03 08:23:04;;;;;;;10.90;4.97;;;;;;;21.38;89.57;101229.34;5072317;28;20555;-60
2023/10/03 08:25:34;;;;;;;9.23;3.58;;;;;;;19.71;93.19;101265.28;5049052;28;20063;-58
2023/10/03 08:28:09;;;;;;;6.50;3.42;;;;;;;18.97;98.35;101269.69;5071105;28;20060;-55
2023/10/03 08:30:38;;;;;;;8.40;3.22;;;;;;;18.90;99.97;101282.63;5049583;28;20166;-60
2023/10/03 08:33:05;;;;;;;7.88;3.20;;;;;;;18.80;95.98;101283.16;5070321;28;20060;-61
2023/10/03 08:35:37;;;;;;;7.93;3.38;;;;;;;18.66;100.00;101280.75;5074147;28;20079;-60
2023/10/03 08:38:07;;;;;;;7.35;3.30;;;;;;;18.88;99.49;101287.78;5070083;28;20052;-59
2023/10/03 08:40:38;;;;;;;9.68;3.50;;;;;;;19.44;97.67;101283.75;5070149;28;20049;-61
2023/10/03 08:43:08;;;;;;;7.80;3.28;;;;;;;19.26;95.13;101279.66;5071119;28;20124;-61
2023/10/03 08:45:41;;;;;;;10.07;3.67;;;;;;;19.03;97.06;101287.81;5072075;28;20409;-60
2023/10/03 08:48:10;;;;;;;11.13;3.50;;;;;;;19.36;96.80;101315.50;5053961;28;20048;-62
2023/10/03 08:50:46;;;;;;;;;;;;;;;19.21;98.70;101315.44;5066942;28;20577;-61
2023/10/03 08:53:26;;;;;;;10.98;3.55;;;;;;;18.85;97.70;101330.34;5054225;28;19925;-61
2023/10/03 08:56:08;;;;;;;12.05;3.38;;;;;;;18.78;100.00;101322.56;5069885;28;20057;-62
2023/10/03 08:58:39;;;;;;;10.27;4.22;;;;;;;19.46;100.00;101328.94;5071638;28;20424;-60
2023/10/03 09:01:07;;;;;;;10.20;3.83;;;;;;;19.78;97.49;101333.38;5072523;28;20487;-60
2023/10/03 09:03:47;;;;;;;12.30;3.58;;;;;;;19.44;97.40;101338.84;5070940;28;20063;-59
2023/10/03 09:06:20;;;;;;;7.45;3.30;;;;;;;19.99;95.74;101347.09;5050077;28;20068;-59
2023/10/03 09:08:51;;;;;;;11.52;3.53;;;;;;;19.26;97.55;101352.31;5069128;28;20423;-60
2023/10/03 09:11:20;;;;;;;9.30;3.28;;;;;;;18.86;99.20;101351.53;5083405;28;20043;-60
2023/10/03 09:13:51;;;;;;;8.50;3.38;;;;;;;18.69;100.00;101368.56;5053119;28;20065;-62
2023/10/03 09:16:20;;;;;;;10.30;3.30;;;;;;;18.50;100.00;101366.34;5072613;28;20060;-59
2023/10/03 09:18:56;;;;;;;13.90;3.65;;;;;;;18.96;100.00;101373.34;5074766;28;20052;-62
2023/10/03 09:21:30;;;;;;;10.80;3.10;;;;;;;18.85;98.51;101375.00;5075611;28;20792;-58
2023/10/03 09:24:02;;;;;;;9.00;3.15;;;;;;;18.98;99.67;101383.00;5085436;28;20083;-60
2023/10/03 09:26:46;;;;;;;12.07;3.00;;;;;;;19.21;97.77;101385.25;5073614;28;20063;-60
2023/10/03 09:29:29;;;;;;;12.45;3.53;;;;;;;18.72;93.87;101388.19;5064522;28;20045;-61
2023/10/03 09:31:59;;;;;;;10.25;3.47;;;;;;;18.89;94.62;101406.63;5052204;28;20056;-62
2023/10/03 09:34:32;;;;;;;16.03;3.90;;;;;;;18.58;96.23;101412.03;5056866;28;20055;-64
2023/10/03 09:37:13;;;;;;;12.05;3.75;;;;;;;18.90;97.28;101422.22;5043649;28;20056;-62
2023/10/03 09:40:00;;;;;;;10.70;3.53;;;;;;;18.94;94.94;101428.72;5049135;28;20045;-61
2023/10/03 09:42:31;;;;;;;9.90;3.95;;;;;;;19.10;92.12;101426.84;5071022;28;20053;-60
2023/10/03 09:44:58;;;;;;;12.82;3.53;;;;;;;18.85;92.88;101428.03;5060628;28;20057;-58
2023/10/03 09:47:30;;;;;;;8.60;3.33;;;;;;;18.61;94.40;101442.03;5074851;28;20040;-61
2023/10/03 09:50:09;;;;;;;9.45;3.58;;;;;;;18.77;97.59;101442.97;5067697;28;20044;-60
2023/10/03 09:52:39;;;;;;;12.48;3.50;;;;;;;18.93;95.59;101446.66;5072133;28;20056;-59
2023/10/03 09:55:26;;;;;;;11.68;3.35;;;;;;;18.91;91.28;101454.56;5086842;28;20040;-58
2023/10/03 09:58:00;;;;;;;14.65;4.22;;;;;;;18.64;92.25;101463.66;5056945;28;20045;-60
2023/10/03 10:00:52;;;;;;;15.82;3.80;;;;;;;18.63;89.94;101474.03;5080464;28;20044;-60
2023/10/03 10:03:33;;;;;;;13.23;3.92;;;;;;;18.23;90.74;101475.00;5057095;28;20060;-64
2023/10/03 10:06:37;;;;;;;13.32;3.53;;;;;;;18.55;90.22;101485.31;5047400;28;20048;-59
2023/10/03 10:09:14;;;;;;;14.32;4.68;;;;;;;18.82;91.73;101484.59;5059989;28;20044;-60
2023/10/03 10:12:13;;;;;;;11.50;4.25;;;;;;;19.11;88.45;101483.50;5084963;28;20056;-61
2023/10/03 10:17:59;;;;;;;10.68;3.83;;;;;;;19.60;88.83;101493.38;5067966;28;20059;-63
2023/10/03 10:20:43;;;;;;;12.75;5.15;;;;;;;19.87;81.22;101499.00;5067774;28;20033;-60
2023/10/03 10:25:43;;;;;;;9.85;3.45;;;;;;;19.65;81.10;101507.13;5073393;28;20087;-60
2023/10/03 10:31:24;;;;;;;18.60;6.82;;;;;;;19.31;82.40;101513.28;5043972;28;20052;-61
2023/10/03 10:34:20;;;;;;;10.63;3.50;;;;;;;18.90;79.33;101526.34;5040259;28;20067;-61
2023/10/03 10:36:53;;;;;;;12.88;3.78;;;;;;;18.75;80.04;101527.03;5069910;28;20052;-62
2023/10/03 10:39:24;;;;;;;13.18;4.20;;;;;;;19.40;79.05;101528.75;5061769;28;20048;-59
2023/10/03 10:42:09;;;;;;;8.98;3.58;;;;;;;19.75;78.67;101526.97;5073675;28;20055;-63
2023/10/03 10:45:02;;;;;;;12.45;3.95;;;;;;;19.78;74.57;101537.47;5062765;28;20048;-61
2023/10/03 10:47:43;;;;;;;13.20;3.88;;;;;;;19.95;78.62;101544.72;5061060;28;20535;-59
2023/10/03 10:50:56;;;;;;;11.93;4.10;;;;;;;20.46;74.78;101552.19;5071116;28;20032;-63
2023/10/03 10:53:42;;;;;;;10.25;3.10;;;;;;;20.01;73.45;101571.28;5057104;28;20063;-67
2023/10/03 10:56:10;;;;;;;13.02;4.47;;;;;;;20.17;77.21;101579.75;5064020;28;20052;-70
2023/10/03 10:58:53;;;;;;;17.17;6.85;;;;;;;19.55;75.35;101583.91;5074538;28;20795;-69
2023/10/03 11:01:22;;;;;;;13.82;6.07;;;;;;;19.16;76.22;101576.22;5066538;28;20055;-66
2023/10/03 11:03:49;;;;;;;11.50;4.88;;;;;;;19.19;77.87;101578.34;5041911;28;20044;-67
2023/10/03 11:06:18;;;;;;;13.68;5.45;;;;;;;19.18;78.54;101582.28;5063538;28;20407;-67
2023/10/03 11:08:49;;;;;;;15.30;6.25;;;;;;;20.05;80.26;101586.97;5052056;28;20063;-66
2023/10/03 11:11:17;;;;;;;15.30;8.07;;;;;;;20.62;77.53;101577.38;5071370;28;20506;-67
2023/10/03 11:13:49;;;;;;;12.80;5.82;;;;;;;20.54;73.45;101587.56;5073982;28;20052;-68
2023/10/03 11:16:21;;;;;;;10.43;4.22;;;;;;;20.85;74.26;101586.78;5033874;28;20495;-60
2023/10/03 11:18:49;;;;;;;12.20;3.50;;;;;;;20.33;73.24;101589.78;5073714;28;20063;-56
2023/10/03 11:21:18;;;;;;;10.73;3.67;;;;;;;19.78;72.39;101596.19;5065061;28;20044;-62
2023/10/03 11:24:15;;;;;;;11.05;4.15;;;;;;;20.24;72.73;101607.94;5043049;28;20045;-66
2023/10/03 11:26:55;;;;;;;7.82;3.70;;;;;;;20.47;68.48;101601.38;5043647;28;20064;-60
2023/10/03 11:29:37;;;;;;;9.07;3.92;;;;;;;20.52;71.33;101612.31;5038837;28;20032;-58
2023/10/03 11:32:17;;;;;;;11.35;4.18;;;;;;;20.38;68.32;101611.91;5084564;28;20056;-60
2023/10/03 11:34:45;;;;;;;13.43;3.83;;;;;;;20.65;71.79;101616.69;5073398;28;20510;-60
2023/10/03 11:37:44;;;;;;;14.70;6.88;;;;;;;19.98;69.55;101613.94;5055073;28;20048;-57
2023/10/03 11:40:14;;;;;;;22.58;7.57;;;;;;;20.09;69.70;101618.69;5054210;28;20055;-65
2023/10/03 11:43:02;;;;;;;25.30;13.68;;;;;;;19.71;69.03;101625.91;5073227;28;20059;-59
2023/10/03 11:45:30;;;;;;;17.65;9.10;;;;;;;19.99;72.33;101626.75;5068347;28;20049;-62
2023/10/03 11:48:17;;;;;;;14.68;7.18;;;;;;;20.50;72.33;101625.88;5064670;28;20407;-58
2023/10/03 11:50:46;;;;;;;22.30;14.57;;;;;;;20.25;67.29;101640.31;5043701;28;20047;-64
2023/10/03 11:53:30;;;;;;;18.50;9.35;;;;;;;20.22;69.33;101633.47;5074996;28;20051;-58